createdAt,value
2019-05-01T00:00:16.368Z,9.50
2019-05-01T00:05:25.437Z,9.40
2019-05-01T00:10:31.249Z,9.30
2019-05-01T00:15:38.330Z,9.20
2019-05-01T00:20:43.794Z,9.20
2019-05-01T00:25:49.230Z,9.10
2019-05-01T00:30:54.672Z,9.10
2019-05-01T00:36:00.085Z,9.00
2019-05-01T00:41:05.508Z,9.00
2019-05-01T00:46:11.001Z,8.90
2019-05-01T00:51:16.446Z,8.90
2019-05-01T00:56:31.255Z,8.80
2019-05-01T01:01:53.732Z,8.80
2019-05-01T01:06:59.191Z,8.70
2019-05-01T01:12:04.637Z,8.70
2019-05-01T01:17:10.038Z,8.70
2019-05-01T01:22:15.444Z,8.60
2019-05-01T01:27:20.980Z,8.50
2019-05-01T01:32:26.441Z,8.50
2019-05-01T01:37:31.888Z,8.40
2019-05-01T01:42:38.414Z,8.40
2019-05-01T01:48:01.504Z,8.40
2019-05-01T01:53:07.037Z,8.30
2019-05-01T01:58:12.565Z,8.30
2019-05-01T02:03:18.938Z,8.20
2019-05-01T02:08:24.389Z,8.20
2019-05-01T02:13:29.869Z,8.20
2019-05-01T02:18:35.305Z,8.20
2019-05-01T02:23:40.734Z,8.20
2019-05-01T02:29:08.214Z,8.10
2019-05-01T02:34:13.637Z,8.10
2019-05-01T02:39:19.115Z,8.10
2019-05-01T02:44:37.273Z,8.10
2019-05-01T02:49:52.347Z,8.00
2019-05-01T02:54:59.150Z,8.00
2019-05-01T03:00:05.243Z,7.90
2019-05-01T03:05:10.663Z,7.90
2019-05-01T03:10:16.088Z,7.80
2019-05-01T03:15:21.582Z,7.80
2019-05-01T03:20:40.045Z,7.80
2019-05-01T03:25:45.497Z,7.80
2019-05-01T03:30:50.899Z,7.80
2019-05-01T03:35:56.314Z,7.90
2019-05-01T03:41:01.899Z,8.00
2019-05-01T03:46:07.359Z,8.20
2019-05-01T03:51:12.810Z,8.40
2019-05-01T03:56:18.226Z,8.70
2019-05-01T04:02:00.617Z,8.90
2019-05-01T04:07:06.066Z,9.00
2019-05-01T04:12:11.486Z,9.20
2019-05-01T04:17:23.103Z,9.40
2019-05-01T04:22:28.577Z,9.50
2019-05-01T04:27:36.216Z,9.60
2019-05-01T04:32:51.707Z,9.70
2019-05-01T04:37:48.834Z,9.80
2019-05-01T04:42:54.256Z,9.90
2019-05-01T04:47:59.679Z,10.00
2019-05-01T04:53:05.186Z,10.00
2019-05-01T04:58:10.603Z,10.00
2019-05-01T05:03:19.345Z,10.00
2019-05-01T05:08:24.817Z,10.00
2019-05-01T05:13:51.900Z,10.10
2019-05-01T05:18:57.321Z,10.20
2019-05-01T05:24:02.725Z,10.40
2019-05-01T05:29:08.266Z,10.50
2019-05-01T05:34:14.280Z,10.70
2019-05-01T05:39:25.990Z,10.80
2019-05-01T05:44:31.382Z,10.80
2019-05-01T05:49:36.951Z,10.90
2019-05-01T05:54:54.275Z,11.00
2019-05-01T06:00:06.426Z,11.10
2019-05-01T06:05:26.033Z,11.20
2019-05-01T06:10:42.123Z,11.20
2019-05-01T06:16:12.220Z,11.30
2019-05-01T06:21:27.323Z,11.30
2019-05-01T06:26:37.524Z,11.40
2019-05-01T06:31:41.442Z,11.50
2019-05-01T06:36:49.554Z,11.60
2019-05-01T06:41:54.155Z,11.70
2019-05-01T06:47:09.524Z,11.80
2019-05-01T06:52:19.103Z,11.90
2019-05-01T06:57:24.640Z,12.00
2019-05-01T07:02:34.925Z,12.10
2019-05-01T07:07:37.211Z,12.10
2019-05-01T07:12:42.759Z,12.20
2019-05-01T07:17:49.014Z,12.30
2019-05-01T07:22:54.947Z,12.20
2019-05-01T07:28:00.365Z,12.30
2019-05-01T07:33:05.770Z,12.30
2019-05-01T07:38:11.228Z,12.30
2019-05-01T07:43:38.332Z,12.30
2019-05-01T07:48:43.926Z,12.30
2019-05-01T07:53:49.645Z,12.40
2019-05-01T07:58:55.168Z,12.40
2019-05-01T08:04:00.814Z,12.40
2019-05-01T08:09:11.365Z,12.50
2019-05-01T08:14:16.615Z,12.50
2019-05-01T08:19:29.202Z,12.50
2019-05-01T08:24:34.847Z,12.50
2019-05-01T08:29:57.342Z,12.60
2019-05-01T08:35:06.955Z,12.60
2019-05-01T08:40:15.990Z,12.70
2019-05-01T08:45:47.370Z,12.80
2019-05-01T08:50:54.584Z,12.80
2019-05-01T08:56:00.166Z,13.00
2019-05-01T09:01:06.213Z,13.10
2019-05-01T09:06:11.651Z,13.20
2019-05-01T09:11:17.090Z,13.30
2019-05-01T09:16:23.490Z,13.40
2019-05-01T09:21:33.298Z,13.50
2019-05-01T09:26:52.109Z,13.70
2019-05-01T09:31:57.723Z,13.80
2019-05-01T09:37:03.157Z,14.00
2019-05-01T09:42:08.817Z,14.00
2019-05-01T09:47:14.325Z,14.10
2019-05-01T09:52:47.996Z,14.20
2019-05-01T09:57:53.459Z,14.30
2019-05-01T10:02:58.983Z,14.30
2019-05-01T10:08:05.505Z,14.10
2019-05-01T10:13:11.040Z,14.20
2019-05-01T10:18:16.438Z,14.10
2019-05-01T10:23:21.992Z,14.30
2019-05-01T10:28:50.129Z,14.60
2019-05-01T10:34:02.966Z,15.00
2019-05-01T10:39:09.567Z,15.20
2019-05-01T10:44:15.193Z,15.20
2019-05-01T10:49:20.597Z,15.30
2019-05-01T10:54:26.319Z,15.50
2019-05-01T10:59:31.786Z,15.60
2019-05-01T11:04:37.727Z,15.70
2019-05-01T11:09:43.212Z,15.90
2019-05-01T11:14:48.633Z,16.10
2019-05-01T11:19:54.095Z,16.30
2019-05-01T11:24:59.504Z,16.60
2019-05-01T11:30:07.581Z,16.90
2019-05-01T11:35:31.996Z,17.20
2019-05-01T11:40:40.085Z,17.50
2019-05-01T11:45:45.557Z,18.00
2019-05-01T11:50:51.079Z,18.50
2019-05-01T11:55:56.565Z,19.00
2019-05-01T12:01:02.707Z,19.30
2019-05-01T12:06:08.135Z,19.50
2019-05-01T12:11:15.250Z,19.60
2019-05-01T12:16:26.676Z,20.00
2019-05-01T12:21:32.193Z,20.50
2019-05-01T12:26:37.685Z,20.70
2019-05-01T12:31:43.131Z,20.90
2019-05-01T12:36:49.540Z,20.40
2019-05-01T12:41:59.174Z,20.20
2019-05-01T12:47:12.857Z,20.50
2019-05-01T12:52:33.354Z,20.90
2019-05-01T12:57:38.810Z,20.90
2019-05-01T13:02:44.307Z,21.10
2019-05-01T13:07:52.364Z,21.10
2019-05-01T13:12:57.832Z,20.90
2019-05-01T13:18:06.368Z,20.80
2019-05-01T13:23:12.063Z,20.60
2019-05-01T13:28:39.746Z,20.20
2019-05-01T13:33:45.349Z,19.60
2019-05-01T13:38:50.885Z,19.20
2019-05-01T13:43:56.419Z,19.10
2019-05-01T13:49:02.140Z,18.70
2019-05-01T13:54:08.703Z,18.10
2019-05-01T13:59:15.301Z,17.40
2019-05-01T14:04:22.538Z,16.90
2019-05-01T14:09:31.048Z,16.40
2019-05-01T14:14:36.552Z,16.40
2019-05-01T14:19:44.238Z,16.30
2019-05-01T14:24:52.733Z,16.20
2019-05-01T14:29:58.172Z,16.30
2019-05-01T14:35:03.906Z,16.20
2019-05-01T14:40:09.333Z,16.20
2019-05-01T14:45:14.760Z,16.00
2019-05-01T14:50:20.330Z,16.00
2019-05-01T14:55:25.778Z,16.00
2019-05-01T15:00:31.260Z,15.90
2019-05-01T15:05:36.907Z,15.90
2019-05-01T15:10:42.400Z,15.90
2019-05-01T15:15:54.715Z,16.00
2019-05-01T15:21:00.361Z,16.10
2019-05-01T15:26:05.810Z,16.20
2019-05-01T15:31:11.228Z,16.10
2019-05-01T15:36:16.722Z,16.20
2019-05-01T15:41:44.049Z,16.20
2019-05-01T15:46:49.588Z,16.30
2019-05-01T15:51:55.137Z,16.20
2019-05-01T15:57:00.693Z,16.10
2019-05-01T16:02:06.218Z,16.00
2019-05-01T16:07:11.802Z,15.90
2019-05-01T16:12:40.379Z,15.80
2019-05-01T16:17:45.948Z,15.80
2019-05-01T16:22:51.480Z,15.90
2019-05-01T16:27:57.334Z,15.90
2019-05-01T16:33:03.352Z,15.90
2019-05-01T16:38:22.720Z,16.00
2019-05-01T16:43:20.551Z,15.90
2019-05-01T16:48:26.329Z,15.90
2019-05-01T16:53:31.942Z,15.80
2019-05-01T16:58:37.964Z,15.80
2019-05-01T17:04:02.471Z,15.70
2019-05-01T17:09:28.411Z,15.60
2019-05-01T17:14:34.177Z,15.60
2019-05-01T17:19:39.725Z,15.50
2019-05-01T17:24:45.497Z,15.40
2019-05-01T17:29:51.111Z,15.30
2019-05-01T17:34:56.534Z,15.20
2019-05-01T17:40:02.145Z,15.10
2019-05-01T17:45:08.383Z,14.90
2019-05-01T17:50:16.467Z,14.80
2019-05-01T17:55:21.417Z,14.60
2019-05-01T18:00:39.203Z,14.40
2019-05-01T18:06:02.910Z,14.20
2019-05-01T18:11:09.394Z,14.10
2019-05-01T18:16:15.741Z,13.90
2019-05-01T18:21:21.707Z,13.70
2019-05-01T18:26:46.241Z,13.60
2019-05-01T18:31:51.944Z,13.40
2019-05-01T18:37:03.875Z,13.20
2019-05-01T18:42:12.168Z,13.00
2019-05-01T18:54:48.802Z,12.70
2019-05-01T19:00:12.119Z,12.40
2019-05-01T19:19:30.979Z,11.90
2019-05-01T19:25:43.995Z,11.70
2019-05-01T19:43:40.569Z,11.30
2019-05-01T19:49:00.959Z,11.20
2019-05-01T19:54:07.699Z,11.10
2019-05-01T19:59:50.584Z,11.00
2019-05-01T20:05:29.020Z,10.90
2019-05-01T20:10:36.191Z,10.80
2019-05-01T20:15:42.279Z,10.70
2019-05-01T20:21:23.607Z,10.70
2019-05-01T20:26:35.526Z,10.50
2019-05-01T20:38:37.238Z,10.40
2019-05-01T20:43:47.039Z,10.30
2019-05-01T20:48:55.857Z,10.30
2019-05-01T20:54:02.821Z,10.20
2019-05-01T20:59:08.358Z,10.20
2019-05-01T21:04:26.716Z,10.10
2019-05-01T21:09:46.733Z,10.10
2019-05-01T21:14:45.276Z,10.00
2019-05-01T21:19:49.751Z,9.90
2019-05-01T21:24:55.225Z,9.90
2019-05-01T21:30:00.592Z,9.80
2019-05-01T21:35:06.482Z,9.80
2019-05-01T21:40:12.905Z,9.70
2019-05-01T21:45:18.469Z,9.60
2019-05-01T21:50:26.363Z,9.60
2019-05-01T21:55:32.091Z,9.50
2019-05-01T22:00:39.307Z,9.40
2019-05-01T22:05:44.766Z,9.40
2019-05-01T22:10:52.236Z,9.40
2019-05-01T22:16:02.761Z,9.40
2019-05-01T22:21:32.843Z,9.40
2019-05-01T22:26:41.297Z,9.40
2019-05-01T22:31:57.531Z,9.30
2019-05-01T22:37:02.726Z,9.30
2019-05-01T22:42:08.349Z,9.30
2019-05-01T22:47:15.107Z,9.20
2019-05-01T22:52:20.993Z,9.20
2019-05-01T22:57:26.429Z,9.20
2019-05-01T23:02:38.409Z,9.10
2019-05-01T23:07:43.843Z,9.10
2019-05-01T23:12:49.357Z,9.00
2019-05-01T23:17:54.958Z,9.00
2019-05-01T23:23:00.360Z,8.90
2019-05-01T23:28:06.128Z,8.90
2019-05-01T23:33:11.820Z,8.80
2019-05-01T23:38:17.227Z,8.80
2019-05-01T23:43:23.000Z,8.80
2019-05-01T23:48:29.905Z,8.70
2019-05-01T23:53:35.348Z,8.70
2019-05-01T23:58:40.809Z,8.70
